sensor_id;sensor_type;location;lat;lon;timestamp;pressure;altitude;pressure_sealevel;temperature;humidity
13241;BME280;6687;47.790;7.322;2024-01-30T06:19:43;100434.31;;;6.54;100.00
13241;BME280;6687;47.790;7.322;2024-01-30T06:22:10;100437.91;;;6.57;100.00
13241;BME280;6687;47.790;7.322;2024-01-30T06:24:37;100436.28;;;6.60;100.00
13241;BME280;6687;47.790;7.322;2024-01-30T06:27:04;100441.56;;;6.63;100.00
13241;BME280;6687;47.790;7.322;2024-01-30T06:29:31;100441.69;;;6.66;100.00
13241;BME280;6687;47.790;7.322;2024-01-30T06:31:57;100442.06;;;6.75;100.00
13241;BME280;6687;47.790;7.322;2024-01-30T06:34:24;100441.19;;;6.74;100.00
13241;BME280;6687;47.790;7.322;2024-01-30T06:36:53;100443.38;;;6.86;100.00
13241;BME280;6687;47.790;7.322;2024-01-30T06:39:20;100445.75;;;6.82;100.00
13241;BME280;6687;47.790;7.322;2024-01-30T06:41:46;100444.28;;;6.87;100.00
13241;BME280;6687;47.790;7.322;2024-01-30T06:44:13;100450.38;;;6.89;100.00
13241;BME280;6687;47.790;7.322;2024-01-30T06:46:40;100445.94;;;6.86;100.00
13241;BME280;6687;47.790;7.322;2024-01-30T06:49:06;100444.06;;;6.82;100.00
13241;BME280;6687;47.790;7.322;2024-01-30T06:51:33;100444.44;;;6.91;100.00
13241;BME280;6687;47.790;7.322;2024-01-30T06:54:01;100450.44;;;6.90;100.00
13241;BME280;6687;47.790;7.322;2024-01-30T06:56:28;100448.78;;;6.92;100.00
13241;BME280;6687;47.790;7.322;2024-01-30T06:58:55;100447.97;;;6.93;100.00
13241;BME280;6687;47.790;7.322;2024-01-30T07:01:27;100454.75;;;6.91;100.00
13241;BME280;6687;47.790;7.322;2024-01-30T07:03:54;100452.16;;;6.91;100.00
13241;BME280;6687;47.790;7.322;2024-01-30T07:06:21;100457.06;;;6.85;100.00
13241;BME280;6687;47.790;7.322;2024-01-30T07:08:49;100456.25;;;6.86;100.00
13241;BME280;6687;47.790;7.322;2024-01-30T07:11:19;100460.59;;;6.87;100.00
13241;BME280;6687;47.790;7.322;2024-01-30T07:13:47;100466.44;;;6.83;100.00
13241;BME280;6687;47.790;7.322;2024-01-30T07:16:14;100462.16;;;6.84;100.00
13241;BME280;6687;47.790;7.322;2024-01-30T07:18:41;100468.06;;;6.81;100.00
13241;BME280;6687;47.790;7.322;2024-01-30T07:21:07;100467.31;;;6.84;100.00
13241;BME280;6687;47.790;7.322;2024-01-30T07:23:34;100469.00;;;6.83;100.00
13241;BME280;6687;47.790;7.322;2024-01-30T07:26:04;100462.94;;;6.81;100.00
13241;BME280;6687;47.790;7.322;2024-01-30T07:28:33;100462.94;;;6.81;100.00
13241;BME280;6687;47.790;7.322;2024-01-30T07:30:59;100464.88;;;6.87;100.00
13241;BME280;6687;47.790;7.322;2024-01-30T07:33:26;100466.84;;;6.92;100.00
13241;BME280;6687;47.790;7.322;2024-01-30T07:35:53;100475.44;;;6.93;100.00
13241;BME280;6687;47.790;7.322;2024-01-30T07:38:20;100479.13;;;7.00;100.00
13241;BME280;6687;47.790;7.322;2024-01-30T07:40:47;100480.94;;;7.02;99.22
13241;BME280;6687;47.790;7.322;2024-01-30T07:43:13;100487.09;;;7.06;99.76
13241;BME280;6687;47.790;7.322;2024-01-30T07:45:41;100487.00;;;7.03;99.31
13241;BME280;6687;47.790;7.322;2024-01-30T07:48:08;100491.63;;;7.11;97.79
13241;BME280;6687;47.790;7.322;2024-01-30T07:50:35;100493.34;;;7.11;98.79
13241;BME280;6687;47.790;7.322;2024-01-30T07:53:02;100486.66;;;7.16;97.96
13241;BME280;6687;47.790;7.322;2024-01-30T07:55:28;100488.53;;;7.20;96.25
13241;BME280;6687;47.790;7.322;2024-01-30T07:57:57;100492.31;;;7.28;95.63
13241;BME280;6687;47.790;7.322;2024-01-30T08:00:24;100488.84;;;7.28;95.38
13241;BME280;6687;47.790;7.322;2024-01-30T08:02:52;100485.78;;;7.36;93.65
13241;BME280;6687;47.790;7.322;2024-01-30T08:05:19;100482.50;;;7.41;93.26
13241;BME280;6687;47.790;7.322;2024-01-30T08:07:47;100487.75;;;7.44;93.32
13241;BME280;6687;47.790;7.322;2024-01-30T08:10:15;100490.41;;;7.45;93.25
13241;BME280;6687;47.790;7.322;2024-01-30T08:12:43;100482.81;;;7.50;92.35
13241;BME280;6687;47.790;7.322;2024-01-30T08:15:11;100481.88;;;7.48;92.26
13241;BME280;6687;47.790;7.322;2024-01-30T08:17:38;100493.44;;;7.57;91.74
13241;BME280;6687;47.790;7.322;2024-01-30T08:20:07;100491.88;;;7.61;91.33
13241;BME280;6687;47.790;7.322;2024-01-30T08:22:38;100483.44;;;7.65;90.69
13241;BME280;6687;47.790;7.322;2024-01-30T08:25:05;100482.84;;;7.72;89.41
13241;BME280;6687;47.790;7.322;2024-01-30T08:27:33;100482.25;;;7.80;88.21
13241;BME280;6687;47.790;7.322;2024-01-30T08:30:01;100477.09;;;7.80;88.37
13241;BME280;6687;47.790;7.322;2024-01-30T08:32:27;100474.78;;;7.87;87.30
13241;BME280;6687;47.790;7.322;2024-01-30T08:34:54;100477.56;;;7.92;87.47
13241;BME280;6687;47.790;7.322;2024-01-30T08:37:22;100465.69;;;7.97;86.72
13241;BME280;6687;47.790;7.322;2024-01-30T08:39:49;100471.56;;;7.93;87.82
13241;BME280;6687;47.790;7.322;2024-01-30T08:42:15;100472.84;;;8.04;86.59
13241;BME280;6687;47.790;7.322;2024-01-30T08:44:43;100472.19;;;8.10;85.44
13241;BME280;6687;47.790;7.322;2024-01-30T08:47:10;100467.06;;;8.11;85.96
13241;BME280;6687;47.790;7.322;2024-01-30T08:49:37;100469.88;;;8.17;85.45
13241;BME280;6687;47.790;7.322;2024-01-30T08:52:04;100463.28;;;8.26;84.69
13241;BME280;6687;47.790;7.322;2024-01-30T08:54:32;100472.56;;;8.21;85.39
13241;BME280;6687;47.790;7.322;2024-01-30T08:57:00;100470.19;;;8.27;85.50
13241;BME280;6687;47.790;7.322;2024-01-30T08:59:27;100478.38;;;8.39;85.08
13241;BME280;6687;47.790;7.322;2024-01-30T09:01:54;100475.84;;;8.41;84.79
13241;BME280;6687;47.790;7.322;2024-01-30T09:04:23;100484.63;;;8.44;84.56
13241;BME280;6687;47.790;7.322;2024-01-30T09:06:50;100476.97;;;8.47;84.65
13241;BME280;6687;47.790;7.322;2024-01-30T09:09:16;100478.16;;;8.55;84.08
13241;BME280;6687;47.790;7.322;2024-01-30T09:11:45;100477.28;;;8.56;83.62
13241;BME280;6687;47.790;7.322;2024-01-30T09:14:12;100482.59;;;8.60;83.01
13241;BME280;6687;47.790;7.322;2024-01-30T09:16:39;100480.88;;;8.60;83.10
13241;BME280;6687;47.790;7.322;2024-01-30T09:19:05;100487.31;;;8.73;83.40
13241;BME280;6687;47.790;7.322;2024-01-30T09:21:32;100490.16;;;8.81;82.71
13241;BME280;6687;47.790;7.322;2024-01-30T09:24:02;100481.63;;;8.83;82.13
13241;BME280;6687;47.790;7.322;2024-01-30T09:26:29;100487.72;;;8.85;81.59
13241;BME280;6687;47.790;7.322;2024-01-30T09:28:57;100488.03;;;8.94;81.12
13241;BME280;6687;47.790;7.322;2024-01-30T09:31:24;100482.88;;;8.94;80.84
13241;BME280;6687;47.790;7.322;2024-01-30T09:33:50;100489.09;;;9.00;79.91
13241;BME280;6687;47.790;7.322;2024-01-30T09:36:19;100481.41;;;9.03;79.71
13241;BME280;6687;47.790;7.322;2024-01-30T09:38:46;100489.38;;;9.09;79.74
13241;BME280;6687;47.790;7.322;2024-01-30T09:41:13;100486.03;;;9.11;79.79
13241;BME280;6687;47.790;7.322;2024-01-30T09:43:41;100484.50;;;9.18;79.38
13241;BME280;6687;47.790;7.322;2024-01-30T09:46:12;100492.41;;;9.23;79.37
13241;BME280;6687;47.790;7.322;2024-01-30T09:48:40;100488.88;;;9.19;78.75
13241;BME280;6687;47.790;7.322;2024-01-30T09:51:08;100482.13;;;9.24;79.58
13241;BME280;6687;47.790;7.322;2024-01-30T09:53:36;100488.22;;;9.26;79.04
13241;BME280;6687;47.790;7.322;2024-01-30T09:56:04;100487.41;;;9.27;78.82
13241;BME280;6687;47.790;7.322;2024-01-30T09:58:31;100483.22;;;9.32;78.84
13241;BME280;6687;47.790;7.322;2024-01-30T10:00:58;100481.88;;;9.44;78.52
13241;BME280;6687;47.790;7.322;2024-01-30T10:03:26;100483.78;;;9.49;78.51
13241;BME280;6687;47.790;7.322;2024-01-30T10:05:55;100479.56;;;9.53;78.25
13241;BME280;6687;47.790;7.322;2024-01-30T10:08:22;100478.09;;;9.61;78.44
13241;BME280;6687;47.790;7.322;2024-01-30T10:10:49;100477.25;;;9.62;78.56
13241;BME280;6687;47.790;7.322;2024-01-30T10:13:16;100484.22;;;9.65;78.41
13241;BME280;6687;47.790;7.322;2024-01-30T10:15:43;100480.88;;;9.67;77.90
13241;BME280;6687;47.790;7.322;2024-01-30T10:18:10;100471.75;;;9.80;78.21
13241;BME280;6687;47.790;7.322;2024-01-30T10:20:38;100485.75;;;9.87;78.14
13241;BME280;6687;47.790;7.322;2024-01-30T10:23:05;100475.41;;;9.87;77.96
13241;BME280;6687;47.790;7.322;2024-01-30T10:25:33;100471.97;;;9.88;77.77
13241;BME280;6687;47.790;7.322;2024-01-30T10:27:59;100474.84;;;9.97;77.97
13241;BME280;6687;47.790;7.322;2024-01-30T10:30:27;100475.06;;;10.05;77.66
13241;BME280;6687;47.790;7.322;2024-01-30T10:32:54;100471.88;;;10.15;76.97
13241;BME280;6687;47.790;7.322;2024-01-30T10:35:21;100472.94;;;10.22;77.58
13241;BME280;6687;47.790;7.322;2024-01-30T10:37:49;100474.88;;;10.29;77.05
13241;BME280;6687;47.790;7.322;2024-01-30T10:40:16;100470.69;;;10.34;77.24
13241;BME280;6687;47.790;7.322;2024-01-30T10:42:44;100460.25;;;10.63;77.05
13241;BME280;6687;47.790;7.322;2024-01-30T10:45:12;100468.84;;;10.62;76.97
13241;BME280;6687;47.790;7.322;2024-01-30T10:47:40;100461.97;;;10.64;76.60
13241;BME280;6687;47.790;7.322;2024-01-30T10:50:08;100474.50;;;10.80;76.41
13241;BME280;6687;47.790;7.322;2024-01-30T10:52:36;100462.47;;;10.84;77.59
13241;BME280;6687;47.790;7.322;2024-01-30T10:55:05;100465.88;;;10.81;77.36
13241;BME280;6687;47.790;7.322;2024-01-30T10:57:34;100461.16;;;11.00;76.79
13241;BME280;6687;47.790;7.322;2024-01-30T11:00:04;100461.97;;;10.97;77.44
13241;BME280;6687;47.790;7.322;2024-01-30T11:02:36;100458.16;;;11.19;77.55
13241;BME280;6687;47.790;7.322;2024-01-30T11:05:04;100453.22;;;11.30;76.93
13241;BME280;6687;47.790;7.322;2024-01-30T11:07:31;100449.69;;;11.28;77.27
13241;BME280;6687;47.790;7.322;2024-01-30T11:10:02;100453.47;;;11.41;76.77
13241;BME280;6687;47.790;7.322;2024-01-30T11:12:32;100446.72;;;11.49;76.49
13241;BME280;6687;47.790;7.322;2024-01-30T11:15:03;100447.00;;;11.61;76.28
13241;BME280;6687;47.790;7.322;2024-01-30T11:17:41;100444.22;;;11.52;76.54
13241;BME280;6687;47.790;7.322;2024-01-30T11:20:10;100454.78;;;11.61;76.04
13241;BME280;6687;47.790;7.322;2024-01-30T11:22:37;100444.78;;;11.78;75.63
13241;BME280;6687;47.790;7.322;2024-01-30T11:25:04;100450.63;;;11.69;76.10
13241;BME280;6687;47.790;7.322;2024-01-30T11:27:32;100453.31;;;11.72;76.59
13241;BME280;6687;47.790;7.322;2024-01-30T11:30:01;100448.59;;;11.94;72.79
13241;BME280;6687;47.790;7.322;2024-01-30T11:32:28;100453.78;;;11.94;75.96
13241;BME280;6687;47.790;7.322;2024-01-30T11:34:55;100451.31;;;12.00;75.12
13241;BME280;6687;47.790;7.322;2024-01-30T11:37:25;100449.50;;;11.96;76.27
13241;BME280;6687;47.790;7.322;2024-01-30T11:39:53;100458.38;;;12.07;74.77
13241;BME280;6687;47.790;7.322;2024-01-30T11:42:23;100446.22;;;12.06;74.72
13241;BME280;6687;47.790;7.322;2024-01-30T11:44:52;100440.00;;;11.98;71.01
13241;BME280;6687;47.790;7.322;2024-01-30T11:47:19;100442.88;;;12.12;72.21
13241;BME280;6687;47.790;7.322;2024-01-30T11:49:46;100436.88;;;12.14;73.63
13241;BME280;6687;47.790;7.322;2024-01-30T11:52:13;100437.78;;;12.17;75.76
13241;BME280;6687;47.790;7.322;2024-01-30T11:54:40;100434.97;;;12.07;75.01
13241;BME280;6687;47.790;7.322;2024-01-30T11:57:07;100436.16;;;12.22;74.57
13241;BME280;6687;47.790;7.322;2024-01-30T11:59:33;100428.97;;;12.08;74.72
13241;BME280;6687;47.790;7.322;2024-01-30T12:02:01;100436.34;;;12.32;74.98
13241;BME280;6687;47.790;7.322;2024-01-30T12:04:28;100431.94;;;12.28;75.75
13241;BME280;6687;47.790;7.322;2024-01-30T12:06:56;100428.72;;;12.42;74.05
13241;BME280;6687;47.790;7.322;2024-01-30T12:09:22;100432.13;;;12.39;71.95
13241;BME280;6687;47.790;7.322;2024-01-30T12:11:49;100431.06;;;12.28;72.73
13241;BME280;6687;47.790;7.322;2024-01-30T12:14:16;100419.91;;;12.35;74.11
13241;BME280;6687;47.790;7.322;2024-01-30T12:16:48;100424.56;;;12.51;73.10
13241;BME280;6687;47.790;7.322;2024-01-30T12:19:22;100421.06;;;12.51;73.07
13241;BME280;6687;47.790;7.322;2024-01-30T12:21:54;100415.28;;;12.66;73.69
13241;BME280;6687;47.790;7.322;2024-01-30T12:24:21;100410.91;;;12.65;72.53
13241;BME280;6687;47.790;7.322;2024-01-30T12:26:48;100412.56;;;12.60;74.00
13241;BME280;6687;47.790;7.322;2024-01-30T12:29:15;100411.81;;;12.67;72.00
13241;BME280;6687;47.790;7.322;2024-01-30T12:31:42;100418.88;;;12.74;73.90
13241;BME280;6687;47.790;7.322;2024-01-30T12:34:09;100416.28;;;12.74;75.22
13241;BME280;6687;47.790;7.322;2024-01-30T12:36:37;100411.88;;;12.70;74.03
13241;BME280;6687;47.790;7.322;2024-01-30T12:39:04;100423.25;;;12.78;72.07
13241;BME280;6687;47.790;7.322;2024-01-30T12:41:31;100410.41;;;12.87;70.21
13241;BME280;6687;47.790;7.322;2024-01-30T12:43:57;100409.66;;;12.94;73.92
13241;BME280;6687;47.790;7.322;2024-01-30T12:46:27;100417.41;;;12.91;71.23
13241;BME280;6687;47.790;7.322;2024-01-30T12:48:54;100407.00;;;12.91;69.91
13241;BME280;6687;47.790;7.322;2024-01-30T12:51:20;100413.25;;;13.03;71.81
13241;BME280;6687;47.790;7.322;2024-01-30T12:53:48;100403.63;;;12.97;74.39
13241;BME280;6687;47.790;7.322;2024-01-30T12:56:16;100405.63;;;13.17;71.27
13241;BME280;6687;47.790;7.322;2024-01-30T12:58:42;100411.78;;;13.20;73.71
13241;BME280;6687;47.790;7.322;2024-01-30T13:01:09;100409.28;;;13.28;74.84
13241;BME280;6687;47.790;7.322;2024-01-30T13:03:36;100401.38;;;13.20;71.36
13241;BME280;6687;47.790;7.322;2024-01-30T13:06:03;100403.13;;;13.21;72.00
13241;BME280;6687;47.790;7.322;2024-01-30T13:08:30;100395.47;;;13.30;74.11
13241;BME280;6687;47.790;7.322;2024-01-30T13:10:58;100403.28;;;13.30;75.65
13241;BME280;6687;47.790;7.322;2024-01-30T13:13:24;100400.75;;;13.37;75.74
13241;BME280;6687;47.790;7.322;2024-01-30T13:15:51;100396.34;;;13.32;75.05
13241;BME280;6687;47.790;7.322;2024-01-30T13:18:18;100399.94;;;13.41;75.08
13241;BME280;6687;47.790;7.322;2024-01-30T13:20:45;100404.16;;;13.31;76.11
13241;BME280;6687;47.790;7.322;2024-01-30T13:23:11;100402.47;;;13.35;75.22
13241;BME280;6687;47.790;7.322;2024-01-30T13:25:38;100399.16;;;13.46;74.41
13241;BME280;6687;47.790;7.322;2024-01-30T13:28:06;100387.72;;;13.37;75.80
13241;BME280;6687;47.790;7.322;2024-01-30T13:30:33;100389.41;;;13.31;72.83
13241;BME280;6687;47.790;7.322;2024-01-30T13:33:00;100386.09;;;13.45;76.30
13241;BME280;6687;47.790;7.322;2024-01-30T13:35:28;100393.13;;;13.49;75.51
13241;BME280;6687;47.790;7.322;2024-01-30T13:37:55;100394.84;;;13.47;73.29
13241;BME280;6687;47.790;7.322;2024-01-30T13:40:22;100394.88;;;13.50;75.14
13241;BME280;6687;47.790;7.322;2024-01-30T13:42:48;100398.50;;;13.64;75.27
13241;BME280;6687;47.790;7.322;2024-01-30T13:45:16;100398.41;;;13.55;76.06
13241;BME280;6687;47.790;7.322;2024-01-30T13:47:43;100401.84;;;13.54;76.15
13241;BME280;6687;47.790;7.322;2024-01-30T13:50:10;100399.22;;;13.51;76.39
13241;BME280;6687;47.790;7.322;2024-01-30T13:52:40;100407.13;;;13.57;75.97
13241;BME280;6687;47.790;7.322;2024-01-30T13:55:07;100409.84;;;13.68;75.33
13241;BME280;6687;47.790;7.322;2024-01-30T13:57:34;100412.50;;;13.72;74.93
13241;BME280;6687;47.790;7.322;2024-01-30T14:00:01;100414.97;;;13.62;75.75
13241;BME280;6687;47.790;7.322;2024-01-30T14:02:32;100415.66;;;13.47;75.34
13241;BME280;6687;47.790;7.322;2024-01-30T14:04:59;100417.56;;;13.60;74.92
13241;BME280;6687;47.790;7.322;2024-01-30T14:07:26;100418.53;;;13.67;75.86
13241;BME280;6687;47.790;7.322;2024-01-30T14:09:53;100418.44;;;13.62;75.82
13241;BME280;6687;47.790;7.322;2024-01-30T14:12:20;100415.06;;;13.68;75.14
13241;BME280;6687;47.790;7.322;2024-01-30T14:14:46;100425.53;;;13.72;75.25
13241;BME280;6687;47.790;7.322;2024-01-30T14:17:13;100424.69;;;13.73;74.68
13241;BME280;6687;47.790;7.322;2024-01-30T14:19:41;100422.91;;;13.69;75.46
13241;BME280;6687;47.790;7.322;2024-01-30T14:22:08;100424.56;;;13.64;75.47
13241;BME280;6687;47.790;7.322;2024-01-30T14:24:34;100428.25;;;13.79;75.79
13241;BME280;6687;47.790;7.322;2024-01-30T14:27:02;100428.19;;;13.76;75.42
13241;BME280;6687;47.790;7.322;2024-01-30T14:29:29;100433.19;;;13.60;74.63
13241;BME280;6687;47.790;7.322;2024-01-30T14:31:56;100434.09;;;13.64;75.87
13241;BME280;6687;47.790;7.322;2024-01-30T14:34:22;100434.16;;;13.68;75.10
13241;BME280;6687;47.790;7.322;2024-01-30T14:36:50;100427.06;;;13.57;74.99
13241;BME280;6687;47.790;7.322;2024-01-30T14:39:17;100429.03;;;13.75;76.06
13241;BME280;6687;47.790;7.322;2024-01-30T14:41:44;100427.25;;;13.70;75.65
13241;BME280;6687;47.790;7.322;2024-01-30T14:44:11;100424.53;;;13.61;75.55
13241;BME280;6687;47.790;7.322;2024-01-30T14:46:39;100418.44;;;13.61;74.60
13241;BME280;6687;47.790;7.322;2024-01-30T14:49:06;100424.47;;;13.55;74.59
13241;BME280;6687;47.790;7.322;2024-01-30T14:51:33;100430.63;;;13.63;76.07
13241;BME280;6687;47.790;7.322;2024-01-30T14:54:01;100425.34;;;13.57;76.08
13241;BME280;6687;47.790;7.322;2024-01-30T14:56:28;100427.94;;;13.56;76.03
13241;BME280;6687;47.790;7.322;2024-01-30T14:58:55;100426.16;;;13.53;75.87
13241;BME280;6687;47.790;7.322;2024-01-30T15:01:21;100414.97;;;13.60;75.62
13241;BME280;6687;47.790;7.322;2024-01-30T15:03:48;100430.41;;;13.48;75.92
13241;BME280;6687;47.790;7.322;2024-01-30T15:06:17;100424.25;;;13.40;74.89
13241;BME280;6687;47.790;7.322;2024-01-30T15:08:43;100431.19;;;13.41;75.42
13241;BME280;6687;47.790;7.322;2024-01-30T15:11:12;100433.75;;;13.38;75.53
13241;BME280;6687;47.790;7.322;2024-01-30T15:13:38;100431.28;;;13.47;76.06
13241;BME280;6687;47.790;7.322;2024-01-30T15:16:05;100425.91;;;13.36;75.73
13241;BME280;6687;47.790;7.322;2024-01-30T15:18:32;100433.03;;;13.48;76.34
13241;BME280;6687;47.790;7.322;2024-01-30T15:20:59;100439.03;;;13.44;76.01
13241;BME280;6687;47.790;7.322;2024-01-30T15:23:26;100442.50;;;13.41;76.20
13241;BME280;6687;47.790;7.322;2024-01-30T15:25:53;100440.59;;;13.29;75.59
13241;BME280;6687;47.790;7.322;2024-01-30T15:28:33;100445.84;;;13.34;75.71
13241;BME280;6687;47.790;7.322;2024-01-30T15:30:59;100452.81;;;13.37;76.25
13241;BME280;6687;47.790;7.322;2024-01-30T15:33:26;100439.66;;;13.27;75.64
13241;BME280;6687;47.790;7.322;2024-01-30T15:35:53;100449.88;;;13.15;74.43
13241;BME280;6687;47.790;7.322;2024-01-30T15:38:20;100444.84;;;13.27;74.85
13241;BME280;6687;47.790;7.322;2024-01-30T15:40:47;100445.44;;;13.08;74.26
13241;BME280;6687;47.790;7.322;2024-01-30T15:43:14;100438.75;;;13.25;75.40
13241;BME280;6687;47.790;7.322;2024-01-30T15:45:42;100445.59;;;13.20;74.84
13241;BME280;6687;47.790;7.322;2024-01-30T15:48:08;100443.09;;;13.26;76.08
13241;BME280;6687;47.790;7.322;2024-01-30T15:50:35;100437.00;;;13.24;76.11
13241;BME280;6687;47.790;7.322;2024-01-30T15:53:03;100448.13;;;13.14;75.50
13241;BME280;6687;47.790;7.322;2024-01-30T15:55:30;100448.91;;;13.08;73.82
13241;BME280;6687;47.790;7.322;2024-01-30T15:57:57;100446.47;;;13.19;75.35
13241;BME280;6687;47.790;7.322;2024-01-30T16:00:23;100451.28;;;12.94;73.57
13241;BME280;6687;47.790;7.322;2024-01-30T16:02:51;100448.88;;;13.05;75.41
13241;BME280;6687;47.790;7.322;2024-01-30T16:05:18;100454.06;;;13.05;75.31
13241;BME280;6687;47.790;7.322;2024-01-30T16:07:45;100456.56;;;13.01;75.15
13241;BME280;6687;47.790;7.322;2024-01-30T16:10:11;100457.56;;;13.07;75.92
13241;BME280;6687;47.790;7.322;2024-01-30T16:12:41;100455.63;;;12.94;74.07
13241;BME280;6687;47.790;7.322;2024-01-30T16:15:10;100453.03;;;12.96;75.26
13241;BME280;6687;47.790;7.322;2024-01-30T16:17:37;100462.69;;;13.01;75.40
13241;BME280;6687;47.790;7.322;2024-01-30T16:20:06;100464.34;;;12.98;76.05
13241;BME280;6687;47.790;7.322;2024-01-30T16:22:34;100467.84;;;13.00;76.31
13241;BME280;6687;47.790;7.322;2024-01-30T16:25:01;100469.47;;;12.94;76.23
13241;BME280;6687;47.790;7.322;2024-01-30T16:27:29;100466.84;;;12.91;76.15
13241;BME280;6687;47.790;7.322;2024-01-30T16:29:56;100471.22;;;12.94;76.33
13241;BME280;6687;47.790;7.322;2024-01-30T16:32:22;100475.56;;;12.93;76.42
13241;BME280;6687;47.790;7.322;2024-01-30T16:34:49;100484.03;;;12.82;76.74
13241;BME280;6687;47.790;7.322;2024-01-30T16:37:17;100480.38;;;12.72;75.55
13241;BME280;6687;47.790;7.322;2024-01-30T16:39:44;100483.16;;;12.83;76.69
13241;BME280;6687;47.790;7.322;2024-01-30T16:42:11;100485.56;;;12.70;76.11
13241;BME280;6687;47.790;7.322;2024-01-30T16:44:38;100489.13;;;12.76;76.55
13241;BME280;6687;47.790;7.322;2024-01-30T16:47:04;100489.09;;;12.74;76.98
13241;BME280;6687;47.790;7.322;2024-01-30T16:49:31;100485.31;;;12.57;76.17
13241;BME280;6687;47.790;7.322;2024-01-30T16:51:58;100490.72;;;12.69;76.70
13241;BME280;6687;47.790;7.322;2024-01-30T16:54:26;100492.47;;;12.70;76.80
13241;BME280;6687;47.790;7.322;2024-01-30T16:56:53;100487.06;;;12.58;77.06
13241;BME280;6687;47.790;7.322;2024-01-30T16:59:19;100497.63;;;12.67;77.26
13241;BME280;6687;47.790;7.322;2024-01-30T17:01:46;100499.38;;;12.68;77.15
13241;BME280;6687;47.790;7.322;2024-01-30T17:04:15;100494.91;;;12.61;77.27
13241;BME280;6687;47.790;7.322;2024-01-30T17:06:41;100501.66;;;12.51;77.17
13241;BME280;6687;47.790;7.322;2024-01-30T17:09:08;100501.66;;;12.49;77.07
13241;BME280;6687;47.790;7.322;2024-01-30T17:11:37;100504.25;;;12.49;76.97
13241;BME280;6687;47.790;7.322;2024-01-30T17:14:04;100503.38;;;12.50;77.93
13241;BME280;6687;47.790;7.322;2024-01-30T17:16:31;100505.03;;;12.47;77.82
13241;BME280;6687;47.790;7.322;2024-01-30T17:18:57;100507.69;;;12.48;77.95
13241;BME280;6687;47.790;7.322;2024-01-30T17:21:24;100506.78;;;12.46;77.97
13241;BME280;6687;47.790;7.322;2024-01-30T17:23:51;100510.09;;;12.39;77.89
13241;BME280;6687;47.790;7.322;2024-01-30T17:26:18;100507.50;;;12.39;77.58
13241;BME280;6687;47.790;7.322;2024-01-30T17:28:47;100510.00;;;12.34;77.06
13241;BME280;6687;47.790;7.322;2024-01-30T17:31:13;100507.50;;;12.39;77.68
13241;BME280;6687;47.790;7.322;2024-01-30T17:33:40;100508.16;;;12.29;77.04
13241;BME280;6687;47.790;7.322;2024-01-30T17:36:07;100510.00;;;12.34;77.70
13241;BME280;6687;47.790;7.322;2024-01-30T17:38:34;100517.63;;;12.25;76.83
13241;BME280;6687;47.790;7.322;2024-01-30T17:41:01;100518.47;;;12.24;78.03
13241;BME280;6687;47.790;7.322;2024-01-30T17:43:28;100521.88;;;12.20;78.05
13241;BME280;6687;47.790;7.322;2024-01-30T17:45:56;100525.41;;;12.25;78.10
13241;BME280;6687;47.790;7.322;2024-01-30T17:48:24;100514.09;;;12.22;78.17
13241;BME280;6687;47.790;7.322;2024-01-30T17:50:51;100520.22;;;12.24;78.72
13241;BME280;6687;47.790;7.322;2024-01-30T17:53:18;100513.16;;;12.18;78.50
13241;BME280;6687;47.790;7.322;2024-01-30T17:55:44;100527.09;;;12.22;78.24
13241;BME280;6687;47.790;7.322;2024-01-30T17:58:11;100519.94;;;12.11;78.60
13241;BME280;6687;47.790;7.322;2024-01-30T18:00:38;100528.47;;;12.04;78.27
13241;BME280;6687;47.790;7.322;2024-01-30T18:03:06;100525.09;;;12.08;78.88
13241;BME280;6687;47.790;7.322;2024-01-30T18:05:33;100527.44;;;11.96;77.56
13241;BME280;6687;47.790;7.322;2024-01-30T18:07:59;100531.94;;;12.05;78.29
13241;BME280;6687;47.790;7.322;2024-01-30T18:10:26;100525.91;;;12.07;78.53
13241;BME280;6687;47.790;7.322;2024-01-30T18:12:53;100530.19;;;12.05;77.96
13241;BME280;6687;47.790;7.322;2024-01-30T18:15:21;100534.44;;;12.00;78.10
13241;BME280;6687;47.790;7.322;2024-01-30T18:17:48;100529.28;;;12.03;78.28
13241;BME280;6687;47.790;7.322;2024-01-30T18:20:16;100540.59;;;12.05;77.85
13241;BME280;6687;47.790;7.322;2024-01-30T18:22:43;100535.34;;;12.02;77.25
13241;BME280;6687;47.790;7.322;2024-01-30T18:25:11;100531.09;;;12.07;76.97
13241;BME280;6687;47.790;7.322;2024-01-30T18:27:38;100528.50;;;12.07;76.64
13241;BME280;6687;47.790;7.322;2024-01-30T18:30:05;100541.44;;;12.04;76.32
13241;BME280;6687;47.790;7.322;2024-01-30T18:32:32;100540.59;;;12.04;76.35
13241;BME280;6687;47.790;7.322;2024-01-30T18:34:59;100537.19;;;12.08;76.24
13241;BME280;6687;47.790;7.322;2024-01-30T18:37:27;100545.78;;;12.05;75.55
13241;BME280;6687;47.790;7.322;2024-01-30T18:39:54;100546.66;;;12.04;75.57
13241;BME280;6687;47.790;7.322;2024-01-30T18:42:20;100552.66;;;12.02;75.24
13241;BME280;6687;47.790;7.322;2024-01-30T18:44:47;100551.84;;;12.04;75.59
13241;BME280;6687;47.790;7.322;2024-01-30T18:47:14;100544.84;;;12.00;75.23
13241;BME280;6687;47.790;7.322;2024-01-30T18:49:40;100545.75;;;12.02;75.53
13241;BME280;6687;47.790;7.322;2024-01-30T18:52:07;100548.38;;;12.04;75.31
13241;BME280;6687;47.790;7.322;2024-01-30T18:54:35;100550.94;;;12.02;74.49
13241;BME280;6687;47.790;7.322;2024-01-30T18:57:03;100548.25;;;11.99;74.62
13241;BME280;6687;47.790;7.322;2024-01-30T18:59:30;100556.03;;;11.99;75.08
13241;BME280;6687;47.790;7.322;2024-01-30T19:01:56;100563.84;;;11.99;75.27
13241;BME280;6687;47.790;7.322;2024-01-30T19:04:23;100557.72;;;11.97;74.88
13241;BME280;6687;47.790;7.322;2024-01-30T19:06:50;100561.16;;;11.94;74.53
13241;BME280;6687;47.790;7.322;2024-01-30T19:09:17;100550.50;;;11.85;74.94
13241;BME280;6687;47.790;7.322;2024-01-30T19:11:45;100555.78;;;11.88;74.91
13241;BME280;6687;47.790;7.322;2024-01-30T19:14:12;100550.66;;;11.90;74.76
13241;BME280;6687;47.790;7.322;2024-01-30T19:16:38;100556.69;;;11.89;75.30
13241;BME280;6687;47.790;7.322;2024-01-30T19:19:05;100550.50;;;11.85;75.29
13241;BME280;6687;47.790;7.322;2024-01-30T19:21:32;100556.69;;;11.89;74.83